Time;durP1;ratioP1;P1;durP2;ratioP2;P2;SDS_P1;SDS_P2;PMS_P1;PMS_P2;Temp;Humidity;BMP_temperature;BMP_pressure;BME280_temperature;BME280_humidity;BME280_pressure;Samples;Min_cycle;Max_cycle;Signal;HPM_P1;HPM_P2
2021/07/09 00:01:48;;;;;;;344.00;330.43;;;15.40;99.90;;;;;;6350190;22;20383;-92
2021/07/09 00:04:18;;;;;;;341.97;327.97;;;15.40;99.90;;;;;;6339691;22;20397;-92
2021/07/09 00:06:55;;;;;;;325.27;312.07;;;15.30;99.90;;;;;;6339507;22;20481;-93
2021/07/09 00:09:33;;;;;;;327.77;314.13;;;15.40;99.90;;;;;;6350073;22;20392;-90
2021/07/09 00:12:08;;;;;;;343.97;330.57;;;15.40;99.90;;;;;;6348531;22;20411;-92
2021/07/09 00:14:49;;;;;;;339.20;325.57;;;15.50;99.90;;;;;;6339185;22;20428;-92
2021/07/09 00:17:23;;;;;;;342.43;328.47;;;15.50;99.90;;;;;;6350770;22;20405;-92
2021/07/09 00:19:56;;;;;;;328.77;315.77;;;15.50;99.90;;;;;;6339297;22;20432;-92
2021/07/09 00:22:32;;;;;;;333.03;319.53;;;15.50;99.90;;;;;;6349523;22;20419;-91
2021/07/09 00:25:08;;;;;;;344.40;330.23;;;15.60;99.90;;;;;;6349853;22;20550;-89
2021/07/09 00:27:46;;;;;;;354.23;339.27;;;15.70;99.90;;;;;;6348625;22;20408;-91
2021/07/09 00:30:18;;;;;;;346.50;331.53;;;15.70;99.90;;;;;;6338660;22;20952;-91
2021/07/09 00:32:56;;;;;;;351.67;337.37;;;15.80;99.90;;;;;;6349908;22;20412;-92
2021/07/09 00:35:38;;;;;;;345.07;331.27;;;15.90;99.90;;;;;;6349739;22;20919;-92
2021/07/09 00:40:59;;;;;;;339.40;325.17;;;15.90;99.90;;;;;;6337426;22;21000;-91
2021/07/09 00:43:34;;;;;;;365.10;349.60;;;15.90;99.90;;;;;;6349392;22;20447;-92
2021/07/09 00:46:07;;;;;;;358.70;344.10;;;16.00;99.90;;;;;;6349625;22;20420;-90
2021/07/09 00:49:06;;;;;;;368.37;353.07;;;16.00;99.90;;;;;;6349972;22;20413;-91
2021/07/09 00:51:41;;;;;;;361.90;347.00;;;16.00;99.90;;;;;;6349505;22;20408;-91
2021/07/09 00:54:10;;;;;;;359.30;344.47;;;15.90;99.90;;;;;;6349443;22;20883;-87
2021/07/09 00:56:57;;;;;;;351.53;337.57;;;16.00;99.90;;;;;;6348134;22;20417;-92
2021/07/09 00:59:25;;;;;;;349.90;335.60;;;15.90;99.90;;;;;;6349529;22;20433;-90
2021/07/09 01:02:13;;;;;;;350.10;336.00;;;15.90;99.90;;;;;;6349139;22;20401;-92
2021/07/09 01:04:56;;;;;;;351.13;337.00;;;15.90;99.90;;;;;;6293548;22;20410;-92
2021/07/09 01:07:26;;;;;;;359.10;344.10;;;15.90;99.90;;;;;;6318360;22;20414;-92
2021/07/09 01:09:56;;;;;;;354.93;340.43;;;15.90;99.90;;;;;;6308038;22;20402;-92
2021/07/09 01:12:28;;;;;;;358.73;343.87;;;16.00;99.90;;;;;;6316967;22;20971;-91
2021/07/09 01:14:57;;;;;;;345.83;331.87;;;15.90;99.90;;;;;;6307572;22;20981;-92
2021/07/09 01:17:26;;;;;;;352.77;338.67;;;15.90;99.90;;;;;;6318080;22;20727;-90
2021/07/09 01:20:04;;;;;;;369.97;354.20;;;15.90;99.90;;;;;;6318165;22;20433;-92
2021/07/09 01:22:38;;;;;;;368.20;353.17;;;15.90;99.90;;;;;;6317641;22;20414;-92
2021/07/09 01:25:30;;;;;;;359.23;343.40;;;15.90;99.90;;;;;;6307935;22;20402;-92
2021/07/09 01:28:09;;;;;;;353.90;339.77;;;16.00;99.90;;;;;;6299168;22;20409;-92
2021/07/09 01:30:41;;;;;;;355.20;339.83;;;15.90;99.90;;;;;;6317922;22;20771;-92
2021/07/09 01:33:10;;;;;;;339.23;325.30;;;16.00;99.90;;;;;;6317553;22;20715;-93
2021/07/09 01:35:44;;;;;;;346.93;332.70;;;16.00;99.90;;;;;;6317824;22;20401;-92
2021/07/09 01:38:13;;;;;;;345.00;330.43;;;16.00;99.90;;;;;;6306872;22;20422;-91
2021/07/09 01:40:43;;;;;;;339.63;325.57;;;16.10;99.90;;;;;;6317580;22;20473;-92
2021/07/09 01:43:10;;;;;;;329.30;314.23;;;16.00;99.90;;;;;;6305725;22;20888;-91
2021/07/09 01:45:43;;;;;;;328.83;315.37;;;15.90;99.90;;;;;;6317816;22;20440;-92
2021/07/09 01:48:29;;;;;;;329.83;317.17;;;15.90;99.90;;;;;;6317877;22;20413;-92
2021/07/09 01:51:14;;;;;;;327.17;313.97;;;15.90;99.90;;;;;;6317741;22;20402;-92
2021/07/09 01:53:50;;;;;;;325.73;312.30;;;15.80;99.90;;;;;;6316631;22;20406;-90
2021/07/09 01:56:25;;;;;;;321.73;308.73;;;15.80;99.90;;;;;;6316062;22;20498;-92
2021/07/09 01:58:56;;;;;;;344.53;330.03;;;15.80;99.90;;;;;;6307567;22;20484;-92
2021/07/09 02:01:29;;;;;;;348.07;333.40;;;15.80;99.90;;;;;;6307329;22;20972;-91
2021/07/09 02:04:06;;;;;;;347.27;332.87;;;15.90;99.90;;;;;;6317483;22;20413;-92
2021/07/09 02:06:37;;;;;;;336.13;322.33;;;15.80;99.90;;;;;;6307526;22;20397;-91
2021/07/09 02:09:07;;;;;;;327.60;314.00;;;15.80;99.90;;;;;;6317917;22;20426;-91
2021/07/09 02:11:41;;;;;;;338.30;323.27;;;15.80;99.90;;;;;;6316521;22;20410;-92
2021/07/09 02:14:08;;;;;;;351.07;336.60;;;15.70;99.90;;;;;;6317565;22;20437;-92
2021/07/09 02:16:45;;;;;;;350.13;335.33;;;15.70;99.90;;;;;;6317866;22;20477;-92
2021/07/09 02:19:15;;;;;;;354.70;339.37;;;15.70;99.90;;;;;;6317299;22;20409;-92
2021/07/09 02:21:47;;;;;;;353.57;339.47;;;15.60;99.90;;;;;;6317607;22;20494;-91
2021/07/09 02:24:32;;;;;;;356.60;340.90;;;15.60;99.90;;;;;;6317974;22;20401;-93
2021/07/09 02:27:08;;;;;;;342.63;328.30;;;15.60;99.90;;;;;;6305633;22;20489;-92
2021/07/09 02:29:37;;;;;;;353.07;337.97;;;15.60;99.90;;;;;;6317750;22;20867;-90
2021/07/09 02:32:11;;;;;;;349.07;333.70;;;15.50;99.90;;;;;;6317781;22;20402;-90
2021/07/09 02:34:47;;;;;;;348.43;334.03;;;15.50;99.90;;;;;;6317525;22;20406;-91
2021/07/09 02:37:19;;;;;;;351.00;336.20;;;15.50;99.90;;;;;;6318621;22;20398;-90
2021/07/09 02:39:55;;;;;;;357.60;342.50;;;15.40;99.90;;;;;;6317362;22;20473;-91
2021/07/09 02:42:25;;;;;;;339.30;324.40;;;15.50;99.90;;;;;;6316500;22;20416;-90
2021/07/09 02:44:57;;;;;;;350.27;332.80;;;15.40;99.90;;;;;;6307334;22;20402;-91
2021/07/09 02:47:40;;;;;;;358.90;341.73;;;15.40;99.90;;;;;;6317175;22;20717;-91
2021/07/09 02:50:12;;;;;;;353.00;335.60;;;15.40;99.90;;;;;;6317140;22;20586;-91
2021/07/09 02:52:42;;;;;;;358.80;341.33;;;15.40;99.90;;;;;;6317501;22;20417;-89
2021/07/09 02:55:18;;;;;;;355.63;338.83;;;15.40;99.90;;;;;;6317308;22;20462;-91
2021/07/09 02:58:01;;;;;;;365.53;348.00;;;15.40;99.90;;;;;;6315899;22;20417;-90
2021/07/09 03:00:36;;;;;;;355.83;339.40;;;15.40;99.90;;;;;;6307098;22;20429;-90
2021/07/09 03:03:13;;;;;;;361.50;343.90;;;15.40;99.90;;;;;;6317358;22;20408;-90
2021/07/09 03:05:51;;;;;;;361.70;343.00;;;15.40;99.90;;;;;;6317671;22;20480;-90
2021/07/09 03:08:18;;;;;;;370.53;351.00;;;15.40;99.90;;;;;;6317377;22;20425;-90
2021/07/09 03:10:52;;;;;;;379.53;359.00;;;15.40;99.90;;;;;;6306865;22;20409;-92
2021/07/09 03:13:24;;;;;;;376.50;356.03;;;15.50;99.90;;;;;;6317474;22;20410;-91
2021/07/09 03:15:51;;;;;;;396.63;375.57;;;15.60;99.90;;;;;;6316709;22;20437;-89
2021/07/09 03:18:24;;;;;;;383.90;362.30;;;15.60;99.90;;;;;;6317614;22;20497;-90
2021/07/09 03:20:52;;;;;;;385.57;364.60;;;15.60;99.90;;;;;;6317149;22;20783;-90
2021/07/09 03:23:19;;;;;;;378.03;356.13;;;15.60;99.90;;;;;;6317224;22;20771;-91
2021/07/09 03:25:53;;;;;;;392.83;370.67;;;15.60;99.90;;;;;;6316988;22;20798;-91
2021/07/09 03:28:25;;;;;;;378.67;358.83;;;15.60;99.90;;;;;;6316979;22;20467;-92
2021/07/09 03:30:55;;;;;;;388.00;367.27;;;15.70;99.90;;;;;;6317027;22;20408;-91
2021/07/09 03:33:24;;;;;;;381.60;361.80;;;15.60;99.90;;;;;;6308929;22;20402;-91
2021/07/09 03:35:55;;;;;;;380.03;359.90;;;15.60;99.90;;;;;;6318978;22;20398;-91
2021/07/09 03:38:30;;;;;;;398.97;379.23;;;15.60;99.90;;;;;;6319071;22;20468;-90
2021/07/09 03:40:57;;;;;;;391.90;371.80;;;15.60;99.90;;;;;;6317315;22;20751;-89
2021/07/09 03:43:34;;;;;;;393.93;373.73;;;15.60;99.90;;;;;;6306071;22;20410;-89
2021/07/09 03:46:04;;;;;;;385.80;365.90;;;15.60;99.90;;;;;;6319274;22;20401;-89
2021/07/09 03:48:33;;;;;;;384.97;364.20;;;15.60;99.90;;;;;;6320121;22;20414;-91
2021/07/09 03:51:07;;;;;;;381.33;362.33;;;15.60;99.90;;;;;;6319149;22;20402;-89
2021/07/09 03:53:37;;;;;;;390.57;370.57;;;15.60;99.90;;;;;;6318987;22;20778;-91
2021/07/09 03:58:54;;;;;;;393.60;374.30;;;15.70;99.90;;;;;;6307630;22;20726;-90
2021/07/09 04:01:31;;;;;;;395.53;374.90;;;15.80;99.90;;;;;;6318542;22;20437;-90
2021/07/09 04:04:09;;;;;;;393.30;373.30;;;15.80;99.90;;;;;;6319158;22;20734;-89
2021/07/09 04:06:36;;;;;;;390.63;370.73;;;15.80;99.90;;;;;;6318656;22;20416;-90
2021/07/09 04:09:10;;;;;;;404.97;383.87;;;15.90;99.90;;;;;;6308747;22;20405;-88
2021/07/09 04:11:39;;;;;;;413.17;390.00;;;15.90;99.90;;;;;;6307333;22;20406;-91
2021/07/09 04:14:09;;;;;;;404.37;383.47;;;15.90;99.90;;;;;;6314889;22;20445;-88
2021/07/09 04:16:40;;;;;;;396.07;375.87;;;16.00;99.90;;;;;;6318799;22;20799;-90
2021/07/09 04:19:16;;;;;;;392.30;370.37;;;16.00;99.90;;;;;;6318357;22;20410;-90
2021/07/09 04:21:45;;;;;;;395.00;374.43;;;16.10;99.90;;;;;;6318857;22;20508;-91
2021/07/09 04:24:26;;;;;;;393.07;372.77;;;16.10;99.90;;;;;;6318703;22;20712;-91
2021/07/09 04:26:56;;;;;;;394.83;375.00;;;16.10;99.90;;;;;;6307083;22;20915;-92
2021/07/09 04:29:24;;;;;;;379.50;360.70;;;16.20;99.90;;;;;;6318485;22;20818;-89
2021/07/09 04:31:52;;;;;;;374.17;356.50;;;16.20;99.90;;;;;;6318604;22;20428;-92
2021/07/09 04:37:02;;;;;;;368.23;350.30;;;16.30;99.90;;;;;;6307165;22;20893;-82
2021/07/09 04:39:31;;;;;;;373.60;356.30;;;16.30;99.90;;;;;;6318718;22;20487;-91
2021/07/09 04:42:12;;;;;;;378.73;360.87;;;16.30;99.90;;;;;;6307015;22;20438;-91
2021/07/09 04:44:49;;;;;;;388.93;370.97;;;16.40;99.90;;;;;;6318238;22;20794;-89
2021/07/09 04:47:26;;;;;;;374.70;357.37;;;16.40;99.90;;;;;;6307556;22;20924;-87
2021/07/09 04:50:15;;;;;;;386.70;369.43;;;16.40;99.90;;;;;;6318701;22;20790;-89
2021/07/09 04:55:46;;;;;;;407.97;389.47;;;16.40;99.90;;;;;;6228395;22;20406;-83
2021/07/09 04:58:13;;;;;;;410.60;392.03;;;16.50;99.90;;;;;;6317785;22;20885;-81
2021/07/09 05:00:44;;;;;;;410.80;392.80;;;16.50;99.90;;;;;;6307538;22;20451;-83
2021/07/09 05:03:15;;;;;;;378.17;360.67;;;16.60;99.90;;;;;;6307830;22;20394;-83
2021/07/09 05:06:17;;;;;;;396.90;378.93;;;16.60;99.90;;;;;;6308056;22;20398;-84
2021/07/09 05:08:49;;;;;;;376.63;359.93;;;16.60;99.90;;;;;;6317801;22;20500;-83
2021/07/09 05:11:37;;;;;;;377.37;360.07;;;16.70;99.90;;;;;;6306077;22;20881;-83
2021/07/09 05:14:08;;;;;;;392.60;375.70;;;16.70;99.90;;;;;;6317658;22;20503;-82
2021/07/09 05:16:37;;;;;;;398.53;381.93;;;16.70;99.90;;;;;;6306691;22;20451;-83
2021/07/09 05:19:06;;;;;;;353.63;337.43;;;16.80;99.90;;;;;;6308934;22;20884;-84
2021/07/09 05:21:39;;;;;;;369.93;353.10;;;16.80;99.90;;;;;;6295688;22;20508;-82
2021/07/09 05:25:00;;;;;;;328.27;313.70;;;16.80;99.90;;;;;;6318131;22;20410;-84
2021/07/09 05:27:56;;;;;;;;;;;;;;;;;;;;;
2021/07/09 05:30:40;;;;;;;275.17;262.20;;;16.80;99.90;;;;;;6318458;22;20390;-90
2021/07/09 05:33:19;;;;;;;290.17;276.57;;;16.80;99.90;;;;;;6317662;22;20414;-87
2021/07/09 05:35:54;;;;;;;270.37;257.47;;;16.80;99.90;;;;;;6307840;22;20397;-90
2021/07/09 05:38:21;;;;;;;267.50;254.10;;;16.80;99.90;;;;;;6318044;22;20433;-90
2021/07/09 05:40:50;;;;;;;288.93;275.17;;;16.70;99.90;;;;;;6306949;22;20516;-91
2021/07/09 05:43:27;;;;;;;316.17;301.47;;;16.70;99.90;;;;;;6318667;22;20402;-89
2021/07/09 05:46:21;;;;;;;276.57;263.17;;;16.70;99.90;;;;;;6317631;22;20886;-85
2021/07/09 05:49:21;;;;;;;291.70;278.17;;;16.70;99.90;;;;;;6318067;22;20456;-92
2021/07/09 05:51:52;;;;;;;293.37;279.40;;;16.70;99.90;;;;;;6293821;22;20436;-94
2021/07/09 05:54:32;;;;;;;324.47;309.93;;;16.80;99.90;;;;;;6317449;22;20398;-87
2021/07/09 05:57:47;;;;;;;403.80;387.17;;;16.70;99.90;;;;;;6316563;22;20416;-87
2021/07/09 06:00:39;;;;;;;;;;;;;;;;;;;;;
2021/07/09 06:03:30;;;;;;;326.97;311.63;;;16.80;99.90;;;;;;6317817;22;20489;-90
2021/07/09 06:05:59;;;;;;;339.80;324.27;;;16.90;99.90;;;;;;6317472;22;20497;-86
2021/07/09 06:08:31;;;;;;;304.00;289.30;;;17.00;99.90;;;;;;6316872;22;20421;-92
2021/07/09 06:11:13;;;;;;;248.43;235.90;;;17.00;99.90;;;;;;6305999;22;20402;-89
2021/07/09 06:14:11;;;;;;;;;;;;;;;;;;;;;
2021/07/09 06:17:03;;;;;;;207.77;195.70;;;17.20;99.90;;;;;;6279720;22;20409;-86
2021/07/09 06:19:32;;;;;;;166.20;156.10;;;17.40;99.90;;;;;;6317269;22;20405;-90
2021/07/09 06:21:59;;;;;;;200.17;188.60;;;17.40;99.90;;;;;;6317680;22;20429;-90
2021/07/09 06:24:32;;;;;;;148.97;138.67;;;17.60;99.90;;;;;;6307177;22;20398;-87
2021/07/09 06:27:03;;;;;;;158.27;147.83;;;17.60;99.90;;;;;;6316451;22;20405;-88
2021/07/09 06:32:34;;;;;;;104.33;95.93;;;17.70;99.90;;;;;;6303758;22;20406;-89
2021/07/09 06:35:30;;;;;;;;;;;;;;;;;;;;;
2021/07/09 06:38:03;;;;;;;95.03;86.60;;;17.80;99.80;;;;;;6317271;22;20433;-90
2021/07/09 06:40:57;;;;;;;106.77;97.87;;;17.80;99.70;;;;;;6304934;22;20407;-90
2021/07/09 06:44:05;;;;;;;62.90;51.60;;;18.10;99.60;;;;;;6317178;22;20451;-92
2021/07/09 06:46:35;;;;;;;65.37;46.17;;;18.00;93.70;;;;;;6317656;22;20954;-88
2021/07/09 06:49:16;;;;;;;58.80;47.40;;;18.10;93.30;;;;;;6317231;22;20419;-91
2021/07/09 06:51:47;;;;;;;59.67;36.23;;;18.10;93.60;;;;;;6307546;22;20409;-86
2021/07/09 06:57:37;;;;;;;;;;;;;;;;;;;;;
2021/07/09 07:00:12;;;;;;;61.00;38.00;;;18.10;90.30;;;;;;6317863;22;20398;-88
2021/07/09 07:02:41;;;;;;;55.60;33.10;;;18.10;90.40;;;;;;6316962;22;20441;-90
2021/07/09 07:05:13;;;;;;;56.70;34.90;;;18.00;90.80;;;;;;6317063;22;20414;-87
2021/07/09 07:07:46;;;;;;;59.93;33.00;;;18.20;90.90;;;;;;6309281;22;20409;-88
2021/07/09 07:10:38;;;;;;;60.57;34.43;;;18.10;90.00;;;;;;6319550;22;20420;-85
2021/07/09 07:13:10;;;;;;;57.20;31.37;;;18.20;90.20;;;;;;6307602;22;20404;-90
2021/07/09 07:15:44;;;;;;;56.10;33.67;;;18.20;89.30;;;;;;6308582;22;20485;-92
2021/07/09 07:18:59;;;;;;;58.90;30.20;;;18.20;90.00;;;;;;6319016;22;20431;-92
2021/07/09 07:24:53;;;;;;;57.20;29.30;;;18.30;91.00;;;;;;6292876;22;20417;-91
2021/07/09 07:27:52;;;;;;;53.97;27.33;;;18.20;84.50;;;;;;6317331;22;20419;-91
2021/07/09 07:30:21;;;;;;;57.57;28.30;;;18.30;86.60;;;;;;6318561;22;20413;-92
2021/07/09 07:32:48;;;;;;;54.20;25.10;;;18.30;84.50;;;;;;6318971;22;20397;-90
2021/07/09 07:35:15;;;;;;;53.83;24.10;;;18.50;83.50;;;;;;6312636;22;20463;-83
2021/07/09 07:37:43;;;;;;;53.40;24.80;;;18.70;81.20;;;;;;6335321;22;20430;-93
2021/07/09 07:40:19;;;;;;;54.40;25.87;;;18.70;77.10;;;;;;6308922;22;20458;-88
2021/07/09 07:42:52;;;;;;;51.17;21.37;;;18.60;72.80;;;;;;6320453;22;20468;-89
2021/07/09 07:45:37;;;;;;;48.80;21.47;;;18.70;74.70;;;;;;6319414;22;20406;-88
2021/07/09 07:48:09;;;;;;;56.33;19.97;;;18.60;72.80;;;;;;6318886;22;20405;-90
2021/07/09 07:50:38;;;;;;;56.30;20.73;;;18.90;72.30;;;;;;6307529;22;20407;-87
2021/07/09 07:53:07;;;;;;;53.37;19.87;;;18.90;69.10;;;;;;6321009;22;20406;-90
2021/07/09 07:55:39;;;;;;;49.30;19.50;;;19.00;69.20;;;;;;6319375;22;20404;-91
2021/07/09 07:58:09;;;;;;;52.80;17.83;;;18.90;69.10;;;;;;6317978;22;20480;-90
2021/07/09 08:00:38;;;;;;;47.27;19.57;;;18.90;67.50;;;;;;6319284;22;20805;-91
2021/07/09 08:03:07;;;;;;;47.70;16.83;;;19.30;66.10;;;;;;6318716;22;20520;-87
2021/07/09 08:05:34;;;;;;;49.50;17.33;;;19.40;64.50;;;;;;6319241;22;20401;-94
2021/07/09 08:08:01;;;;;;;53.17;16.87;;;19.50;61.40;;;;;;6309714;22;20732;-90
2021/07/09 08:10:28;;;;;;;51.33;16.80;;;19.50;59.50;;;;;;6308917;22;20447;-91
2021/07/09 08:12:54;;;;;;;49.10;14.97;;;19.70;59.30;;;;;;6306848;22;20949;-93
2021/07/09 08:15:21;;;;;;;48.73;15.60;;;19.80;58.40;;;;;;6318604;22;20441;-91
2021/07/09 08:17:52;;;;;;;49.90;15.40;;;19.50;55.50;;;;;;6308097;22;20426;-92
2021/07/09 08:20:19;;;;;;;47.27;14.70;;;19.30;54.10;;;;;;6308664;22;20408;-89
2021/07/09 08:22:46;;;;;;;43.43;13.10;;;19.50;56.00;;;;;;6308610;22;20767;-92
2021/07/09 08:25:16;;;;;;;45.37;13.70;;;19.40;54.80;;;;;;6319115;22;20785;-91
2021/07/09 08:27:43;;;;;;;42.03;13.67;;;19.50;54.40;;;;;;6316957;22;20414;-93
2021/07/09 08:30:11;;;;;;;48.97;15.67;;;19.40;57.70;;;;;;6318833;22;20409;-94
2021/07/09 08:32:40;;;;;;;44.90;14.07;;;19.30;56.20;;;;;;6318759;22;20440;-92
2021/07/09 08:35:09;;;;;;;45.60;14.93;;;19.30;55.10;;;;;;6318491;22;20420;-93
2021/07/09 08:37:36;;;;;;;49.43;15.07;;;19.10;55.10;;;;;;6318855;22;20434;-93
2021/07/09 08:40:04;;;;;;;43.40;13.87;;;19.10;56.50;;;;;;6319078;22;20410;-92
2021/07/09 08:42:32;;;;;;;45.20;13.17;;;19.20;54.80;;;;;;6317060;22;20469;-91
2021/07/09 08:45:02;;;;;;;40.50;13.30;;;19.20;52.50;;;;;;6318442;22;20398;-92
2021/07/09 08:47:32;;;;;;;47.33;15.90;;;19.20;52.50;;;;;;6318395;22;20739;-93
2021/07/09 08:50:02;;;;;;;45.63;14.67;;;19.20;52.50;;;;;;6318554;22;20485;-88
2021/07/09 08:52:30;;;;;;;41.33;11.93;;;19.20;52.60;;;;;;6308151;22;20402;-94
2021/07/09 08:54:57;;;;;;;42.47;14.50;;;18.90;54.50;;;;;;6318866;22;20869;-91
2021/07/09 08:57:24;;;;;;;42.30;14.33;;;18.90;54.20;;;;;;6306528;22;20393;-94
2021/07/09 08:59:51;;;;;;;44.60;13.87;;;18.80;54.40;;;;;;6318667;22;20401;-93
2021/07/09 09:02:26;;;;;;;50.23;16.47;;;19.00;54.00;;;;;;6308008;22;20747;-94
2021/07/09 09:04:54;;;;;;;47.20;16.60;;;19.00;52.30;;;;;;6308154;22;20400;-93
2021/07/09 09:07:27;;;;;;;49.40;16.00;;;19.00;52.30;;;;;;6307008;22;20881;-87
2021/07/09 09:09:58;;;;;;;40.90;13.47;;;18.90;52.30;;;;;;6307642;22;20869;-90
2021/07/09 09:12:25;;;;;;;38.97;11.77;;;18.90;52.20;;;;;;6306889;22;20441;-92
2021/07/09 09:14:52;;;;;;;37.20;10.53;;;18.90;49.90;;;;;;6317952;22;20472;-92
2021/07/09 09:17:32;;;;;;;45.07;14.63;;;19.10;50.90;;;;;;6307997;22;20398;-82
2021/07/09 09:20:22;;;;;;;41.23;12.30;;;19.50;49.70;;;;;;6310477;22;20451;-86
2021/07/09 09:22:56;;;;;;;38.30;11.77;;;19.40;46.90;;;;;;6317302;22;20433;-96
2021/07/09 09:25:26;;;;;;;39.50;11.00;;;19.70;44.20;;;;;;6327347;22;20414;-95
2021/07/09 09:28:06;;;;;;;40.43;11.17;;;19.80;42.70;;;;;;6319725;22;20437;-94
2021/07/09 09:30:39;;;;;;;37.03;10.37;;;19.90;39.30;;;;;;6323250;22;20469;-94
2021/07/09 09:33:07;;;;;;;43.20;11.30;;;19.90;41.90;;;;;;6334092;22;20881;-96
2021/07/09 09:35:44;;;;;;;39.80;10.83;;;19.70;40.60;;;;;;6325180;22;20398;-95
2021/07/09 09:38:13;;;;;;;38.73;10.57;;;20.00;40.20;;;;;;6322976;22;20406;-90
2021/07/09 09:40:44;;;;;;;43.03;10.83;;;20.20;38.40;;;;;;6289541;22;20419;-92
2021/07/09 09:43:16;;;;;;;42.80;11.90;;;20.60;37.70;;;;;;6327307;22;20479;-87
2021/07/09 09:46:03;;;;;;;53.97;12.17;;;20.60;36.30;;;;;;6322793;22;20393;-85
2021/07/09 09:48:46;;;;;;;41.33;12.17;;;21.50;36.40;;;;;;6332359;22;20409;-88
2021/07/09 09:51:30;;;;;;;45.83;13.73;;;22.60;32.30;;;;;;6331106;22;20397;-83
2021/07/09 09:54:00;;;;;;;39.07;9.70;;;22.60;28.90;;;;;;6250336;22;20405;-82
2021/07/09 09:57:04;;;;;;;41.20;10.07;;;23.30;27.20;;;;;;6322163;22;20416;-96
2021/07/09 09:59:32;;;;;;;43.07;9.87;;;23.30;24.80;;;;;;6334473;22;20416;-95
2021/07/09 10:02:01;;;;;;;45.50;10.60;;;23.40;24.20;;;;;;6338118;22;20884;-93
2021/07/09 10:04:35;;;;;;;50.17;12.47;;;23.70;23.90;;;;;;6318535;22;20405;-95
2021/07/09 10:07:06;;;;;;;47.77;11.70;;;23.80;22.40;;;;;;6337170;22;20409;-93
2021/07/09 10:09:47;;;;;;;51.20;13.27;;;24.80;22.10;;;;;;6339539;22;20400;-95
2021/07/09 10:12:35;;;;;;;50.30;13.57;;;24.60;21.70;;;;;;6335477;22;20405;-95
2021/07/09 10:15:07;;;;;;;52.57;12.73;;;24.90;20.60;;;;;;6329304;22;20448;-94
2021/07/09 10:17:50;;;;;;;48.70;11.00;;;25.10;19.10;;;;;;6333431;22;20433;-91
2021/07/09 10:20:20;;;;;;;52.53;14.90;;;26.30;19.00;;;;;;6306646;22;20469;-78
2021/07/09 10:22:47;;;;;;;54.00;10.47;;;25.70;16.20;;;;;;6306943;22;20421;-78
2021/07/09 10:25:16;;;;;;;51.40;13.10;;;26.90;11.80;;;;;;6303419;22;20404;-78
2021/07/09 10:27:45;;;;;;;52.83;17.23;;;27.80;13.50;;;;;;6304163;22;20406;-78
2021/07/09 10:30:14;;;;;;;52.67;15.70;;;27.60;8.60;;;;;;6305734;22;20404;-76
2021/07/09 10:32:42;;;;;;;52.03;14.23;;;27.10;7.30;;;;;;6305164;22;20953;-78
2021/07/09 10:35:11;;;;;;;52.20;14.67;;;27.10;7.20;;;;;;6304613;22;20399;-78
2021/07/09 10:37:38;;;;;;;57.03;14.77;;;27.90;6.30;;;;;;6306225;22;20475;-78
2021/07/09 10:40:15;;;;;;;51.10;12.17;;;27.20;5.60;;;;;;6303556;22;20415;-77
2021/07/09 10:42:47;;;;;;;55.53;12.43;;;27.40;8.90;;;;;;6306735;22;20437;-77
2021/07/09 10:45:16;;;;;;;55.73;14.37;;;27.30;9.40;;;;;;6308641;22;20783;-76
2021/07/09 10:47:49;;;;;;;52.43;15.60;;;28.00;9.40;;;;;;6308127;22;20404;-77
2021/07/09 10:50:17;;;;;;;55.83;15.70;;;28.80;7.10;;;;;;6307980;22;20844;-77
2021/07/09 10:52:51;;;;;;;54.90;16.73;;;29.20;5.20;;;;;;6308646;22;20397;-77
2021/07/09 10:55:46;;;;;;;58.93;13.77;;;29.40;2.70;;;;;;6308157;22;20400;-77
2021/07/09 10:58:36;;;;;;;54.30;11.73;;;29.00;1.00;;;;;;6318731;22;20437;-77
2021/07/09 11:01:18;;;;;;;51.33;12.03;;;28.40;2.10;;;;;;6318453;22;20942;-77
2021/07/09 11:03:48;;;;;;;50.40;10.90;;;28.10;1.90;;;;;;6308287;22;20428;-77
2021/07/09 11:06:17;;;;;;;49.50;10.60;;;27.50;1.60;;;;;;6308443;22;20480;-77
2021/07/09 11:08:52;;;;;;;50.17;11.67;;;27.10;4.90;;;;;;6307773;22;20403;-77
2021/07/09 11:11:38;;;;;;;48.57;9.70;;;27.60;6.60;;;;;;6306844;22;20470;-76
2021/07/09 11:14:07;;;;;;;46.87;9.10;;;27.60;1.70;;;;;;6308216;22;20433;-77
2021/07/09 11:16:37;;;;;;;45.87;9.00;;;28.30;2.10;;;;;;6307839;22;20397;-77
2021/07/09 11:19:09;;;;;;;45.40;10.40;;;27.80;1.20;;;;;;6308932;22;20394;-77
2021/07/09 11:21:57;;;;;;;45.50;8.57;;;27.80;1.80;;;;;;6314416;22;20393;-96
2021/07/09 11:24:27;;;;;;;44.40;8.27;;;28.40;1.00;;;;;;6325195;22;20459;-93
2021/07/09 11:26:56;;;;;;;45.40;8.63;;;28.50;1.00;;;;;;6318630;22;20433;-79
2021/07/09 11:29:35;;;;;;;46.10;8.43;;;28.40;2.10;;;;;;6308755;22;20469;-84
2021/07/09 11:32:06;;;;;;;45.50;7.63;;;28.50;1.00;;;;;;6308251;22;20409;-85
2021/07/09 11:34:36;;;;;;;44.30;7.60;;;28.30;2.10;;;;;;6309171;22;20406;-87
2021/07/09 11:37:07;;;;;;;45.37;8.13;;;28.70;1.00;;;;;;6319576;22;20433;-84
2021/07/09 11:39:37;;;;;;;44.83;7.43;;;28.50;1.00;;;;;;6309151;22;20488;-89
2021/07/09 11:42:09;;;;;;;43.53;6.40;;;28.50;1.00;;;;;;6318136;22;20433;-86
2021/07/09 11:44:41;;;;;;;43.87;7.00;;;28.30;1.00;;;;;;6308986;22;20429;-90
2021/07/09 11:47:09;;;;;;;44.00;6.30;;;28.50;1.00;;;;;;6309147;22;20397;-91
2021/07/09 11:49:38;;;;;;;44.93;6.30;;;28.50;1.00;;;;;;6309151;22;20940;-89
2021/07/09 11:52:07;;;;;;;42.40;5.73;;;29.40;1.00;;;;;;6308482;22;20452;-90
2021/07/09 11:54:36;;;;;;;42.83;6.53;;;29.00;1.00;;;;;;6308947;22;20433;-89
2021/07/09 11:57:08;;;;;;;43.30;6.63;;;28.70;1.00;;;;;;6307022;22;20398;-89
2021/07/09 11:59:37;;;;;;;44.93;8.40;;;29.20;1.00;;;;;;6308514;22;20401;-90
2021/07/09 12:02:07;;;;;;;45.40;7.50;;;28.80;1.00;;;;;;6308903;22;20452;-89
2021/07/09 12:04:36;;;;;;;44.70;7.73;;;28.30;1.00;;;;;;6318706;22;20776;-88
2021/07/09 12:07:27;;;;;;;42.47;7.60;;;28.10;1.00;;;;;;6308544;22;20399;-89
2021/07/09 12:09:58;;;;;;;43.03;6.90;;;28.20;1.00;;;;;;6308853;22;20481;-88
2021/07/09 12:12:27;;;;;;;42.37;6.93;;;28.60;1.00;;;;;;6306632;22;20394;-88
2021/07/09 12:14:58;;;;;;;42.57;6.00;;;28.40;1.00;;;;;;6308312;22;20435;-88
2021/07/09 12:17:28;;;;;;;42.60;5.97;;;29.60;1.00;;;;;;6318903;22;20405;-89
2021/07/09 12:22:30;;;;;;;43.30;6.77;;;29.50;1.00;;;;;;6246135;23;20411;-88
2021/07/09 12:25:01;;;;;;;44.53;6.80;;;29.70;1.00;;;;;;6246663;23;20898;-89
2021/07/09 12:27:29;;;;;;;47.27;6.63;;;30.50;1.00;;;;;;6255385;23;20404;-89
2021/07/09 12:30:04;;;;;;;47.77;7.33;;;30.40;1.00;;;;;;6246915;23;20434;-88
2021/07/09 12:32:31;;;;;;;46.57;7.80;;;30.10;1.00;;;;;;6246340;23;20395;-88
2021/07/09 12:35:06;;;;;;;45.97;6.67;;;29.30;1.00;;;;;;6246453;23;20406;-87
2021/07/09 12:37:33;;;;;;;46.37;6.60;;;28.80;1.00;;;;;;6216077;23;20407;-86
2021/07/09 12:40:10;;;;;;;46.77;6.83;;;28.40;1.00;;;;;;6225706;23;20491;-84
2021/07/09 12:42:38;;;;;;;45.60;7.87;;;28.60;1.00;;;;;;6214741;23;20450;-88
2021/07/09 12:45:07;;;;;;;43.10;6.27;;;28.30;1.00;;;;;;6226242;23;20714;-84
2021/07/09 12:47:35;;;;;;;45.73;6.63;;;27.70;1.00;;;;;;6216263;23;20483;-87
2021/07/09 12:50:19;;;;;;;46.07;7.10;;;26.70;1.00;;;;;;6216449;23;20400;-87
2021/07/09 12:52:46;;;;;;;43.20;7.40;;;26.00;2.10;;;;;;6226514;23;20404;-87
2021/07/09 12:55:39;;;;;;;41.83;7.10;;;25.90;3.80;;;;;;6216760;23;20400;-87
2021/07/09 12:58:15;;;;;;;45.53;8.53;;;25.30;4.10;;;;;;6215839;23;20396;-85
2021/07/09 13:00:45;;;;;;;40.50;7.40;;;25.30;5.90;;;;;;6216965;23;20395;-85
2021/07/09 13:03:44;;;;;;;42.60;8.30;;;25.20;6.10;;;;;;6215806;23;20518;-85
2021/07/09 13:06:45;;;;;;;;;;;;;;;;;;;;;
2021/07/09 13:09:21;;;;;;;42.27;6.53;;;25.60;6.30;;;;;;6124484;23;20403;-84
2021/07/09 13:11:53;;;;;;;44.00;9.00;;;25.60;6.60;;;;;;6214192;23;20487;-83
2021/07/09 13:14:22;;;;;;;40.67;8.40;;;25.50;5.30;;;;;;6216038;23;20403;-86
2021/07/09 13:16:54;;;;;;;40.07;9.57;;;25.40;8.30;;;;;;6216344;23;20399;-85
2021/07/09 13:19:40;;;;;;;42.30;9.97;;;25.30;7.40;;;;;;6226114;23;20743;-90
2021/07/09 13:22:08;;;;;;;41.20;9.30;;;25.30;7.40;;;;;;6225680;23;20895;-89
2021/07/09 13:24:36;;;;;;;42.07;9.47;;;25.20;6.20;;;;;;6216149;23;20432;-84
2021/07/09 13:27:22;;;;;;;42.37;9.37;;;25.10;4.20;;;;;;6224872;23;20436;-85
2021/07/09 13:29:57;;;;;;;44.13;10.23;;;25.50;3.80;;;;;;6226116;23;20435;-87